sensor_id;sensor_type;location;lat;lon;timestamp;temperature;humidity
54264;DHT22;40178;53.042;6.406;2024-01-25T00:00:50;7.40;99.90
54264;DHT22;40178;53.042;6.406;2024-01-25T00:03:15;7.40;99.90
54264;DHT22;40178;53.042;6.406;2024-01-25T00:05:41;7.30;99.90
54264;DHT22;40178;53.042;6.406;2024-01-25T00:08:06;7.30;99.90
54264;DHT22;40178;53.042;6.406;2024-01-25T00:10:32;7.30;99.90
54264;DHT22;40178;53.042;6.406;2024-01-25T00:12:58;7.10;99.90
54264;DHT22;40178;53.042;6.406;2024-01-25T00:15:24;7.10;99.90
54264;DHT22;40178;53.042;6.406;2024-01-25T00:17:49;7.10;99.90
54264;DHT22;40178;53.042;6.406;2024-01-25T00:20:15;7.00;99.90
54264;DHT22;40178;53.042;6.406;2024-01-25T00:22:41;7.10;99.90
54264;DHT22;40178;53.042;6.406;2024-01-25T00:25:07;7.00;99.90
54264;DHT22;40178;53.042;6.406;2024-01-25T00:27:33;6.90;99.90
54264;DHT22;40178;53.042;6.406;2024-01-25T00:29:58;6.80;99.90
54264;DHT22;40178;53.042;6.406;2024-01-25T00:32:24;6.80;99.90
54264;DHT22;40178;53.042;6.406;2024-01-25T00:34:50;6.80;99.90
54264;DHT22;40178;53.042;6.406;2024-01-25T00:37:16;6.70;99.90
54264;DHT22;40178;53.042;6.406;2024-01-25T00:39:41;6.70;99.90
54264;DHT22;40178;53.042;6.406;2024-01-25T00:42:07;6.60;99.90
54264;DHT22;40178;53.042;6.406;2024-01-25T00:44:35;6.80;99.90
54264;DHT22;40178;53.042;6.406;2024-01-25T00:47:01;6.60;99.90
54264;DHT22;40178;53.042;6.406;2024-01-25T00:49:27;6.50;99.90
54264;DHT22;40178;53.042;6.406;2024-01-25T00:51:59;6.50;99.90
54264;DHT22;40178;53.042;6.406;2024-01-25T00:54:27;6.50;99.90
54264;DHT22;40178;53.042;6.406;2024-01-25T00:56:53;6.40;99.90
54264;DHT22;40178;53.042;6.406;2024-01-25T00:59:19;6.40;99.90
54264;DHT22;40178;53.042;6.406;2024-01-25T01:01:47;6.40;99.90
54264;DHT22;40178;53.042;6.406;2024-01-25T01:04:16;6.40;99.90
54264;DHT22;40178;53.042;6.406;2024-01-25T01:06:42;6.30;99.90
54264;DHT22;40178;53.042;6.406;2024-01-25T01:09:08;6.30;99.90
54264;DHT22;40178;53.042;6.406;2024-01-25T01:11:34;6.30;99.90
54264;DHT22;40178;53.042;6.406;2024-01-25T01:13:59;6.30;99.90
54264;DHT22;40178;53.042;6.406;2024-01-25T01:16:25;6.20;99.90
54264;DHT22;40178;53.042;6.406;2024-01-25T01:18:51;6.20;99.90
54264;DHT22;40178;53.042;6.406;2024-01-25T01:21:16;6.20;99.90
54264;DHT22;40178;53.042;6.406;2024-01-25T01:23:42;6.10;99.90
54264;DHT22;40178;53.042;6.406;2024-01-25T01:26:08;6.10;99.90
54264;DHT22;40178;53.042;6.406;2024-01-25T01:28:33;6.10;99.90
54264;DHT22;40178;53.042;6.406;2024-01-25T01:30:59;6.10;99.90
54264;DHT22;40178;53.042;6.406;2024-01-25T01:33:24;6.00;99.90
54264;DHT22;40178;53.042;6.406;2024-01-25T01:35:50;6.00;99.90
54264;DHT22;40178;53.042;6.406;2024-01-25T01:38:16;5.90;99.90
54264;DHT22;40178;53.042;6.406;2024-01-25T01:40:44;5.80;99.90
54264;DHT22;40178;53.042;6.406;2024-01-25T01:43:18;5.80;99.90
54264;DHT22;40178;53.042;6.406;2024-01-25T01:45:44;5.80;99.90
54264;DHT22;40178;53.042;6.406;2024-01-25T01:48:09;5.70;99.90
54264;DHT22;40178;53.042;6.406;2024-01-25T01:50:35;5.80;99.90
54264;DHT22;40178;53.042;6.406;2024-01-25T01:53:00;5.70;99.90
54264;DHT22;40178;53.042;6.406;2024-01-25T01:55:26;5.70;99.90
54264;DHT22;40178;53.042;6.406;2024-01-25T01:57:52;5.70;99.90
54264;DHT22;40178;53.042;6.406;2024-01-25T02:00:20;5.70;99.90
54264;DHT22;40178;53.042;6.406;2024-01-25T02:02:46;5.70;99.90
54264;DHT22;40178;53.042;6.406;2024-01-25T02:05:12;5.70;99.90
54264;DHT22;40178;53.042;6.406;2024-01-25T02:07:39;5.70;99.90
54264;DHT22;40178;53.042;6.406;2024-01-25T02:10:07;5.70;99.90
54264;DHT22;40178;53.042;6.406;2024-01-25T02:12:32;5.70;99.90
54264;DHT22;40178;53.042;6.406;2024-01-25T02:14:58;5.70;99.90
54264;DHT22;40178;53.042;6.406;2024-01-25T02:17:23;5.60;99.90
54264;DHT22;40178;53.042;6.406;2024-01-25T02:19:49;5.50;99.90
54264;DHT22;40178;53.042;6.406;2024-01-25T02:22:18;5.50;99.90
54264;DHT22;40178;53.042;6.406;2024-01-25T02:24:44;5.50;99.90
54264;DHT22;40178;53.042;6.406;2024-01-25T02:27:09;5.40;99.90
54264;DHT22;40178;53.042;6.406;2024-01-25T02:29:35;5.50;99.90
54264;DHT22;40178;53.042;6.406;2024-01-25T02:32:00;5.40;99.90
54264;DHT22;40178;53.042;6.406;2024-01-25T02:34:26;5.40;99.90
54264;DHT22;40178;53.042;6.406;2024-01-25T02:36:52;5.40;99.90
54264;DHT22;40178;53.042;6.406;2024-01-25T02:39:17;5.40;99.90
54264;DHT22;40178;53.042;6.406;2024-01-25T02:41:43;5.30;99.90
54264;DHT22;40178;53.042;6.406;2024-01-25T02:44:08;5.40;99.90
54264;DHT22;40178;53.042;6.406;2024-01-25T02:46:34;5.30;99.90
54264;DHT22;40178;53.042;6.406;2024-01-25T02:49:00;5.40;99.90
54264;DHT22;40178;53.042;6.406;2024-01-25T02:51:25;5.40;99.90
54264;DHT22;40178;53.042;6.406;2024-01-25T02:53:51;5.40;99.90
54264;DHT22;40178;53.042;6.406;2024-01-25T02:56:16;5.40;99.90
54264;DHT22;40178;53.042;6.406;2024-01-25T02:58:42;5.40;99.90
54264;DHT22;40178;53.042;6.406;2024-01-25T03:01:07;5.40;99.90
54264;DHT22;40178;53.042;6.406;2024-01-25T03:03:33;5.40;99.90
54264;DHT22;40178;53.042;6.406;2024-01-25T03:05:59;5.50;99.90
54264;DHT22;40178;53.042;6.406;2024-01-25T03:08:25;5.90;99.90
54264;DHT22;40178;53.042;6.406;2024-01-25T03:10:50;5.50;99.90
54264;DHT22;40178;53.042;6.406;2024-01-25T03:13:16;5.40;99.90
54264;DHT22;40178;53.042;6.406;2024-01-25T03:15:43;5.40;99.90
54264;DHT22;40178;53.042;6.406;2024-01-25T03:18:09;5.50;99.90
54264;DHT22;40178;53.042;6.406;2024-01-25T03:20:35;5.40;99.90
54264;DHT22;40178;53.042;6.406;2024-01-25T03:23:00;5.40;99.90
54264;DHT22;40178;53.042;6.406;2024-01-25T03:25:26;5.40;99.90
54264;DHT22;40178;53.042;6.406;2024-01-25T03:27:52;5.40;99.90
54264;DHT22;40178;53.042;6.406;2024-01-25T03:30:17;5.40;99.90
54264;DHT22;40178;53.042;6.406;2024-01-25T03:32:43;5.30;99.90
54264;DHT22;40178;53.042;6.406;2024-01-25T03:35:08;5.40;99.90
54264;DHT22;40178;53.042;6.406;2024-01-25T03:37:34;5.30;99.90
54264;DHT22;40178;53.042;6.406;2024-01-25T03:39:59;5.30;99.90
54264;DHT22;40178;53.042;6.406;2024-01-25T03:42:25;5.30;99.90
54264;DHT22;40178;53.042;6.406;2024-01-25T03:44:52;5.30;99.90
54264;DHT22;40178;53.042;6.406;2024-01-25T03:47:17;5.30;99.90
54264;DHT22;40178;53.042;6.406;2024-01-25T03:49:43;5.30;99.90
54264;DHT22;40178;53.042;6.406;2024-01-25T03:52:09;5.20;99.90
54264;DHT22;40178;53.042;6.406;2024-01-25T03:54:34;5.20;99.90
54264;DHT22;40178;53.042;6.406;2024-01-25T03:57:00;5.10;99.90
54264;DHT22;40178;53.042;6.406;2024-01-25T03:59:25;5.10;99.90
54264;DHT22;40178;53.042;6.406;2024-01-25T04:01:51;5.10;99.90
54264;DHT22;40178;53.042;6.406;2024-01-25T04:04:17;6.00;99.90
54264;DHT22;40178;53.042;6.406;2024-01-25T04:06:43;5.10;99.90
54264;DHT22;40178;53.042;6.406;2024-01-25T04:09:09;5.00;99.90
54264;DHT22;40178;53.042;6.406;2024-01-25T04:11:36;5.00;99.90
54264;DHT22;40178;53.042;6.406;2024-01-25T04:14:02;5.00;99.90
54264;DHT22;40178;53.042;6.406;2024-01-25T04:16:28;5.00;99.90
54264;DHT22;40178;53.042;6.406;2024-01-25T04:18:54;4.90;99.90
54264;DHT22;40178;53.042;6.406;2024-01-25T04:21:20;4.90;99.90
54264;DHT22;40178;53.042;6.406;2024-01-25T04:23:46;4.90;99.90
54264;DHT22;40178;53.042;6.406;2024-01-25T04:26:11;4.90;99.90
54264;DHT22;40178;53.042;6.406;2024-01-25T04:28:37;4.80;99.90
54264;DHT22;40178;53.042;6.406;2024-01-25T04:31:03;4.80;99.90
54264;DHT22;40178;53.042;6.406;2024-01-25T04:33:29;4.80;99.90
54264;DHT22;40178;53.042;6.406;2024-01-25T04:35:55;4.80;99.90
54264;DHT22;40178;53.042;6.406;2024-01-25T04:38:21;4.70;99.90
54264;DHT22;40178;53.042;6.406;2024-01-25T04:40:47;4.70;99.90
54264;DHT22;40178;53.042;6.406;2024-01-25T04:43:12;4.60;99.90
54264;DHT22;40178;53.042;6.406;2024-01-25T04:45:39;4.60;99.90
54264;DHT22;40178;53.042;6.406;2024-01-25T04:48:05;4.60;99.90
54264;DHT22;40178;53.042;6.406;2024-01-25T04:50:31;4.60;99.90
54264;DHT22;40178;53.042;6.406;2024-01-25T04:52:57;4.50;99.90
54264;DHT22;40178;53.042;6.406;2024-01-25T04:55:23;4.60;99.90
54264;DHT22;40178;53.042;6.406;2024-01-25T04:57:48;4.50;99.90
54264;DHT22;40178;53.042;6.406;2024-01-25T05:00:19;4.50;99.90
54264;DHT22;40178;53.042;6.406;2024-01-25T05:02:44;4.50;99.90
54264;DHT22;40178;53.042;6.406;2024-01-25T05:05:10;4.40;99.90
54264;DHT22;40178;53.042;6.406;2024-01-25T05:07:36;4.50;99.90
54264;DHT22;40178;53.042;6.406;2024-01-25T05:10:01;4.40;99.90
54264;DHT22;40178;53.042;6.406;2024-01-25T05:12:27;4.50;99.90
54264;DHT22;40178;53.042;6.406;2024-01-25T05:14:53;4.40;99.90
54264;DHT22;40178;53.042;6.406;2024-01-25T05:17:18;4.40;99.90
54264;DHT22;40178;53.042;6.406;2024-01-25T05:19:44;4.40;99.90
54264;DHT22;40178;53.042;6.406;2024-01-25T05:22:10;4.30;99.90
54264;DHT22;40178;53.042;6.406;2024-01-25T05:24:36;4.30;99.90
54264;DHT22;40178;53.042;6.406;2024-01-25T05:27:01;4.30;99.90
54264;DHT22;40178;53.042;6.406;2024-01-25T05:29:27;4.20;99.90
54264;DHT22;40178;53.042;6.406;2024-01-25T05:31:53;4.20;99.90
54264;DHT22;40178;53.042;6.406;2024-01-25T05:34:19;4.10;99.90
54264;DHT22;40178;53.042;6.406;2024-01-25T05:36:44;4.10;99.90
54264;DHT22;40178;53.042;6.406;2024-01-25T05:39:10;4.00;99.90
54264;DHT22;40178;53.042;6.406;2024-01-25T05:41:35;4.00;99.90
54264;DHT22;40178;53.042;6.406;2024-01-25T05:44:01;4.00;99.90
54264;DHT22;40178;53.042;6.406;2024-01-25T05:46:27;3.90;99.90
54264;DHT22;40178;53.042;6.406;2024-01-25T05:48:52;3.90;99.90
54264;DHT22;40178;53.042;6.406;2024-01-25T05:51:18;3.80;99.90
54264;DHT22;40178;53.042;6.406;2024-01-25T05:53:44;3.70;99.90
54264;DHT22;40178;53.042;6.406;2024-01-25T05:56:09;3.60;99.90
54264;DHT22;40178;53.042;6.406;2024-01-25T05:58:35;3.50;99.90
54264;DHT22;40178;53.042;6.406;2024-01-25T06:01:01;3.50;99.90
54264;DHT22;40178;53.042;6.406;2024-01-25T06:03:26;3.50;99.90
54264;DHT22;40178;53.042;6.406;2024-01-25T06:05:52;3.50;99.90
54264;DHT22;40178;53.042;6.406;2024-01-25T06:08:17;3.50;99.90
54264;DHT22;40178;53.042;6.406;2024-01-25T06:10:43;3.50;99.90
54264;DHT22;40178;53.042;6.406;2024-01-25T06:13:09;3.50;99.90
54264;DHT22;40178;53.042;6.406;2024-01-25T06:15:34;3.50;99.90
54264;DHT22;40178;53.042;6.406;2024-01-25T06:18:00;3.50;99.90
54264;DHT22;40178;53.042;6.406;2024-01-25T06:20:26;3.40;99.90
54264;DHT22;40178;53.042;6.406;2024-01-25T06:22:51;3.40;99.90
54264;DHT22;40178;53.042;6.406;2024-01-25T06:25:17;3.40;99.90
54264;DHT22;40178;53.042;6.406;2024-01-25T06:27:43;3.30;99.90
54264;DHT22;40178;53.042;6.406;2024-01-25T06:30:09;3.30;99.90
54264;DHT22;40178;53.042;6.406;2024-01-25T06:32:35;3.40;99.90
54264;DHT22;40178;53.042;6.406;2024-01-25T06:35:00;3.40;99.90
54264;DHT22;40178;53.042;6.406;2024-01-25T06:37:26;3.40;99.90
54264;DHT22;40178;53.042;6.406;2024-01-25T06:39:51;3.40;99.90
54264;DHT22;40178;53.042;6.406;2024-01-25T06:42:17;3.40;99.90
54264;DHT22;40178;53.042;6.406;2024-01-25T06:44:44;3.40;99.90
54264;DHT22;40178;53.042;6.406;2024-01-25T06:47:09;3.40;99.90
54264;DHT22;40178;53.042;6.406;2024-01-25T06:49:35;3.40;99.90
54264;DHT22;40178;53.042;6.406;2024-01-25T06:52:01;3.40;99.90
54264;DHT22;40178;53.042;6.406;2024-01-25T06:54:27;3.50;99.90
54264;DHT22;40178;53.042;6.406;2024-01-25T06:56:52;3.50;99.90
54264;DHT22;40178;53.042;6.406;2024-01-25T06:59:18;3.50;99.90
54264;DHT22;40178;53.042;6.406;2024-01-25T07:01:43;3.50;99.90
54264;DHT22;40178;53.042;6.406;2024-01-25T07:04:09;3.40;99.90
54264;DHT22;40178;53.042;6.406;2024-01-25T07:06:35;3.40;99.90
54264;DHT22;40178;53.042;6.406;2024-01-25T07:09:00;3.40;99.90
54264;DHT22;40178;53.042;6.406;2024-01-25T07:11:26;3.30;99.90
54264;DHT22;40178;53.042;6.406;2024-01-25T07:13:52;3.20;99.90
54264;DHT22;40178;53.042;6.406;2024-01-25T07:16:17;3.10;99.90
54264;DHT22;40178;53.042;6.406;2024-01-25T07:18:44;3.20;99.90
54264;DHT22;40178;53.042;6.406;2024-01-25T07:21:10;3.10;99.90
54264;DHT22;40178;53.042;6.406;2024-01-25T07:23:36;3.20;99.90
54264;DHT22;40178;53.042;6.406;2024-01-25T07:26:01;3.20;99.90
54264;DHT22;40178;53.042;6.406;2024-01-25T07:28:27;3.20;99.90
54264;DHT22;40178;53.042;6.406;2024-01-25T07:30:53;3.20;99.90
54264;DHT22;40178;53.042;6.406;2024-01-25T07:33:19;3.30;99.90
54264;DHT22;40178;53.042;6.406;2024-01-25T07:35:44;3.30;99.90
54264;DHT22;40178;53.042;6.406;2024-01-25T07:38:16;3.30;99.90
54264;DHT22;40178;53.042;6.406;2024-01-25T07:40:42;3.30;99.90
54264;DHT22;40178;53.042;6.406;2024-01-25T07:43:07;3.40;99.90
54264;DHT22;40178;53.042;6.406;2024-01-25T07:45:33;3.40;99.90
54264;DHT22;40178;53.042;6.406;2024-01-25T07:47:59;3.40;99.90
54264;DHT22;40178;53.042;6.406;2024-01-25T07:50:25;3.40;99.90
54264;DHT22;40178;53.042;6.406;2024-01-25T07:52:50;3.50;99.90
54264;DHT22;40178;53.042;6.406;2024-01-25T07:55:16;3.60;99.90
54264;DHT22;40178;53.042;6.406;2024-01-25T07:57:42;3.60;99.90
54264;DHT22;40178;53.042;6.406;2024-01-25T08:00:08;3.60;99.90
54264;DHT22;40178;53.042;6.406;2024-01-25T08:02:37;3.60;99.90
54264;DHT22;40178;53.042;6.406;2024-01-25T08:05:07;3.60;99.90
54264;DHT22;40178;53.042;6.406;2024-01-25T08:07:33;3.70;99.90
54264;DHT22;40178;53.042;6.406;2024-01-25T08:09:59;3.70;99.90
54264;DHT22;40178;53.042;6.406;2024-01-25T08:12:25;3.70;99.90
54264;DHT22;40178;53.042;6.406;2024-01-25T08:14:51;3.70;99.90
54264;DHT22;40178;53.042;6.406;2024-01-25T08:17:16;3.80;99.90
54264;DHT22;40178;53.042;6.406;2024-01-25T08:19:42;3.80;99.90
54264;DHT22;40178;53.042;6.406;2024-01-25T08:22:07;3.80;99.90
54264;DHT22;40178;53.042;6.406;2024-01-25T08:24:34;3.80;99.90
54264;DHT22;40178;53.042;6.406;2024-01-25T08:26:59;3.80;99.90
54264;DHT22;40178;53.042;6.406;2024-01-25T08:29:25;3.90;99.90
54264;DHT22;40178;53.042;6.406;2024-01-25T08:31:50;3.90;99.90
54264;DHT22;40178;53.042;6.406;2024-01-25T08:34:16;3.90;99.90
54264;DHT22;40178;53.042;6.406;2024-01-25T08:36:42;3.90;99.90
54264;DHT22;40178;53.042;6.406;2024-01-25T08:39:07;4.00;99.90
54264;DHT22;40178;53.042;6.406;2024-01-25T08:41:34;4.00;99.90
54264;DHT22;40178;53.042;6.406;2024-01-25T08:44:00;4.00;99.90
54264;DHT22;40178;53.042;6.406;2024-01-25T08:46:26;4.00;99.90
54264;DHT22;40178;53.042;6.406;2024-01-25T08:48:52;4.10;99.90
54264;DHT22;40178;53.042;6.406;2024-01-25T08:51:17;4.10;99.90
54264;DHT22;40178;53.042;6.406;2024-01-25T08:53:43;4.10;99.90
54264;DHT22;40178;53.042;6.406;2024-01-25T08:56:09;4.20;99.90
54264;DHT22;40178;53.042;6.406;2024-01-25T08:58:35;4.20;99.90
54264;DHT22;40178;53.042;6.406;2024-01-25T09:01:00;4.20;99.90
54264;DHT22;40178;53.042;6.406;2024-01-25T09:03:26;4.30;99.90
54264;DHT22;40178;53.042;6.406;2024-01-25T09:05:52;4.30;99.90
54264;DHT22;40178;53.042;6.406;2024-01-25T09:08:17;4.40;99.90
54264;DHT22;40178;53.042;6.406;2024-01-25T09:10:43;4.50;99.90
54264;DHT22;40178;53.042;6.406;2024-01-25T09:13:09;4.50;99.90
54264;DHT22;40178;53.042;6.406;2024-01-25T09:15:35;4.60;99.90
54264;DHT22;40178;53.042;6.406;2024-01-25T09:18:01;4.60;99.90
54264;DHT22;40178;53.042;6.406;2024-01-25T09:20:27;4.70;99.90
54264;DHT22;40178;53.042;6.406;2024-01-25T09:22:52;4.70;99.90
54264;DHT22;40178;53.042;6.406;2024-01-25T09:25:21;4.70;99.90
54264;DHT22;40178;53.042;6.406;2024-01-25T09:27:47;4.80;99.90
54264;DHT22;40178;53.042;6.406;2024-01-25T09:30:13;4.80;99.90
54264;DHT22;40178;53.042;6.406;2024-01-25T09:32:39;4.80;99.90
54264;DHT22;40178;53.042;6.406;2024-01-25T09:35:05;4.80;99.90
54264;DHT22;40178;53.042;6.406;2024-01-25T09:37:30;4.90;99.90
54264;DHT22;40178;53.042;6.406;2024-01-25T09:39:56;4.90;99.90
54264;DHT22;40178;53.042;6.406;2024-01-25T09:42:24;4.90;99.90
54264;DHT22;40178;53.042;6.406;2024-01-25T09:44:51;4.90;99.90
54264;DHT22;40178;53.042;6.406;2024-01-25T09:47:17;5.00;99.90
54264;DHT22;40178;53.042;6.406;2024-01-25T09:49:45;4.90;99.90
54264;DHT22;40178;53.042;6.406;2024-01-25T09:52:12;4.90;99.90
54264;DHT22;40178;53.042;6.406;2024-01-25T09:54:38;4.90;99.90
54264;DHT22;40178;53.042;6.406;2024-01-25T09:57:15;5.50;99.90
54264;DHT22;40178;53.042;6.406;2024-01-25T09:59:44;5.00;99.90
54264;DHT22;40178;53.042;6.406;2024-01-25T10:02:11;5.10;99.90
54264;DHT22;40178;53.042;6.406;2024-01-25T10:04:37;5.10;99.90
54264;DHT22;40178;53.042;6.406;2024-01-25T10:07:03;5.10;99.90
54264;DHT22;40178;53.042;6.406;2024-01-25T10:09:37;5.10;99.90
54264;DHT22;40178;53.042;6.406;2024-01-25T10:12:03;5.10;99.90
54264;DHT22;40178;53.042;6.406;2024-01-25T10:14:30;5.10;99.90
54264;DHT22;40178;53.042;6.406;2024-01-25T10:16:57;5.10;99.90
54264;DHT22;40178;53.042;6.406;2024-01-25T10:19:23;5.10;99.90
54264;DHT22;40178;53.042;6.406;2024-01-25T10:21:49;5.20;99.90
54264;DHT22;40178;53.042;6.406;2024-01-25T10:24:15;5.20;99.90
54264;DHT22;40178;53.042;6.406;2024-01-25T10:26:41;5.30;99.90
54264;DHT22;40178;53.042;6.406;2024-01-25T10:29:10;5.30;99.90
54264;DHT22;40178;53.042;6.406;2024-01-25T10:31:39;5.40;99.90
54264;DHT22;40178;53.042;6.406;2024-01-25T10:34:11;5.50;99.90
54264;DHT22;40178;53.042;6.406;2024-01-25T10:36:39;5.60;99.90
54264;DHT22;40178;53.042;6.406;2024-01-25T10:39:07;5.70;99.90
54264;DHT22;40178;53.042;6.406;2024-01-25T10:41:34;5.80;99.90
54264;DHT22;40178;53.042;6.406;2024-01-25T10:44:00;5.90;99.90
54264;DHT22;40178;53.042;6.406;2024-01-25T10:46:28;6.00;99.90
54264;DHT22;40178;53.042;6.406;2024-01-25T10:48:57;6.10;99.90
54264;DHT22;40178;53.042;6.406;2024-01-25T10:51:24;6.20;99.90
54264;DHT22;40178;53.042;6.406;2024-01-25T10:53:51;6.20;99.90
54264;DHT22;40178;53.042;6.406;2024-01-25T10:56:17;6.20;99.90
54264;DHT22;40178;53.042;6.406;2024-01-25T10:58:43;6.30;99.90
54264;DHT22;40178;53.042;6.406;2024-01-25T11:01:09;6.40;99.90
54264;DHT22;40178;53.042;6.406;2024-01-25T11:03:39;6.40;99.90
54264;DHT22;40178;53.042;6.406;2024-01-25T11:06:13;7.50;99.90
54264;DHT22;40178;53.042;6.406;2024-01-25T11:08:39;6.60;99.90
54264;DHT22;40178;53.042;6.406;2024-01-25T11:11:06;6.60;99.90
54264;DHT22;40178;53.042;6.406;2024-01-25T11:13:35;6.70;99.90
54264;DHT22;40178;53.042;6.406;2024-01-25T11:16:13;6.80;99.90
54264;DHT22;40178;53.042;6.406;2024-01-25T11:18:56;6.80;99.90
54264;DHT22;40178;53.042;6.406;2024-01-25T11:21:43;6.90;99.90
54264;DHT22;40178;53.042;6.406;2024-01-25T11:24:24;7.00;99.90
54264;DHT22;40178;53.042;6.406;2024-01-25T11:26:54;7.00;99.90
54264;DHT22;40178;53.042;6.406;2024-01-25T11:29:21;7.10;99.90
54264;DHT22;40178;53.042;6.406;2024-01-25T11:31:50;7.10;99.90
54264;DHT22;40178;53.042;6.406;2024-01-25T11:34:16;7.10;99.90
54264;DHT22;40178;53.042;6.406;2024-01-25T11:36:43;7.20;99.90
54264;DHT22;40178;53.042;6.406;2024-01-25T11:39:10;7.20;99.90
54264;DHT22;40178;53.042;6.406;2024-01-25T11:41:37;7.20;99.90
54264;DHT22;40178;53.042;6.406;2024-01-25T11:44:02;7.30;99.90
54264;DHT22;40178;53.042;6.406;2024-01-25T11:46:31;7.30;99.90
54264;DHT22;40178;53.042;6.406;2024-01-25T11:49:00;7.30;99.90
54264;DHT22;40178;53.042;6.406;2024-01-25T11:51:26;7.40;99.90
54264;DHT22;40178;53.042;6.406;2024-01-25T11:53:51;7.40;99.90
54264;DHT22;40178;53.042;6.406;2024-01-25T11:56:28;8.00;99.90
54264;DHT22;40178;53.042;6.406;2024-01-25T11:58:54;7.40;99.90
54264;DHT22;40178;53.042;6.406;2024-01-25T12:01:23;7.30;99.90
54264;DHT22;40178;53.042;6.406;2024-01-25T12:03:49;7.30;99.90
54264;DHT22;40178;53.042;6.406;2024-01-25T12:06:15;7.30;99.90
54264;DHT22;40178;53.042;6.406;2024-01-25T12:08:40;7.20;99.90
54264;DHT22;40178;53.042;6.406;2024-01-25T12:11:07;7.30;99.90
54264;DHT22;40178;53.042;6.406;2024-01-25T12:13:39;7.30;99.90
54264;DHT22;40178;53.042;6.406;2024-01-25T12:16:05;7.30;99.90
54264;DHT22;40178;53.042;6.406;2024-01-25T12:18:32;7.30;99.90
54264;DHT22;40178;53.042;6.406;2024-01-25T12:20:59;7.30;99.90
54264;DHT22;40178;53.042;6.406;2024-01-25T12:23:36;7.30;99.90
54264;DHT22;40178;53.042;6.406;2024-01-25T12:26:03;7.30;99.90
54264;DHT22;40178;53.042;6.406;2024-01-25T12:28:30;7.40;99.90
54264;DHT22;40178;53.042;6.406;2024-01-25T12:30:58;7.40;99.90
54264;DHT22;40178;53.042;6.406;2024-01-25T12:33:24;7.40;99.90
54264;DHT22;40178;53.042;6.406;2024-01-25T12:35:49;7.40;99.90
54264;DHT22;40178;53.042;6.406;2024-01-25T12:38:15;8.30;99.90
54264;DHT22;40178;53.042;6.406;2024-01-25T12:40:46;7.40;99.90
54264;DHT22;40178;53.042;6.406;2024-01-25T12:43:12;7.50;99.90
54264;DHT22;40178;53.042;6.406;2024-01-25T12:45:38;7.50;99.90
54264;DHT22;40178;53.042;6.406;2024-01-25T12:48:04;7.50;99.90
54264;DHT22;40178;53.042;6.406;2024-01-25T12:50:32;7.50;99.90
54264;DHT22;40178;53.042;6.406;2024-01-25T12:52:57;7.40;99.90
54264;DHT22;40178;53.042;6.406;2024-01-25T12:55:24;7.40;99.90
54264;DHT22;40178;53.042;6.406;2024-01-25T12:57:50;7.40;99.90
54264;DHT22;40178;53.042;6.406;2024-01-25T13:00:16;7.30;99.90
54264;DHT22;40178;53.042;6.406;2024-01-25T13:02:41;7.40;99.90
54264;DHT22;40178;53.042;6.406;2024-01-25T13:05:07;7.30;99.90
54264;DHT22;40178;53.042;6.406;2024-01-25T13:07:33;7.30;99.90
54264;DHT22;40178;53.042;6.406;2024-01-25T13:09:58;7.30;99.90
54264;DHT22;40178;53.042;6.406;2024-01-25T13:12:24;7.30;99.90
54264;DHT22;40178;53.042;6.406;2024-01-25T13:14:50;7.30;99.90
54264;DHT22;40178;53.042;6.406;2024-01-25T13:17:15;7.30;99.90
54264;DHT22;40178;53.042;6.406;2024-01-25T13:19:41;7.30;99.90
54264;DHT22;40178;53.042;6.406;2024-01-25T13:22:06;7.40;99.90
54264;DHT22;40178;53.042;6.406;2024-01-25T13:24:32;7.40;99.90
54264;DHT22;40178;53.042;6.406;2024-01-25T13:26:57;7.40;99.90
54264;DHT22;40178;53.042;6.406;2024-01-25T13:29:23;7.50;99.90
54264;DHT22;40178;53.042;6.406;2024-01-25T13:31:49;7.50;99.90
54264;DHT22;40178;53.042;6.406;2024-01-25T13:34:14;7.50;99.90
54264;DHT22;40178;53.042;6.406;2024-01-25T13:36:40;7.50;99.90
54264;DHT22;40178;53.042;6.406;2024-01-25T13:39:05;7.60;99.90
54264;DHT22;40178;53.042;6.406;2024-01-25T13:41:31;7.60;99.90
54264;DHT22;40178;53.042;6.406;2024-01-25T13:43:57;7.60;99.90
54264;DHT22;40178;53.042;6.406;2024-01-25T13:46:22;8.10;99.90
54264;DHT22;40178;53.042;6.406;2024-01-25T13:48:48;7.60;99.90
54264;DHT22;40178;53.042;6.406;2024-01-25T13:51:13;7.60;99.90
54264;DHT22;40178;53.042;6.406;2024-01-25T13:53:39;7.60;99.90
54264;DHT22;40178;53.042;6.406;2024-01-25T13:56:05;7.60;99.90
54264;DHT22;40178;53.042;6.406;2024-01-25T13:58:31;7.60;99.90
54264;DHT22;40178;53.042;6.406;2024-01-25T14:00:56;7.60;99.90
54264;DHT22;40178;53.042;6.406;2024-01-25T14:03:22;7.60;99.90
54264;DHT22;40178;53.042;6.406;2024-01-25T14:05:47;7.60;99.90
54264;DHT22;40178;53.042;6.406;2024-01-25T14:08:13;7.60;99.90
54264;DHT22;40178;53.042;6.406;2024-01-25T14:10:39;7.60;99.90
54264;DHT22;40178;53.042;6.406;2024-01-25T14:13:04;7.60;99.90
54264;DHT22;40178;53.042;6.406;2024-01-25T14:15:30;7.60;99.90
54264;DHT22;40178;53.042;6.406;2024-01-25T14:17:56;7.60;99.90
54264;DHT22;40178;53.042;6.406;2024-01-25T14:20:21;7.60;99.90
54264;DHT22;40178;53.042;6.406;2024-01-25T14:22:48;7.50;99.90
54264;DHT22;40178;53.042;6.406;2024-01-25T14:25:14;7.50;99.90
54264;DHT22;40178;53.042;6.406;2024-01-25T14:27:40;7.50;99.90
54264;DHT22;40178;53.042;6.406;2024-01-25T14:30:06;7.50;99.90
54264;DHT22;40178;53.042;6.406;2024-01-25T14:32:32;7.40;99.90
54264;DHT22;40178;53.042;6.406;2024-01-25T14:34:58;7.40;99.90
54264;DHT22;40178;53.042;6.406;2024-01-25T14:37:23;7.30;99.90
54264;DHT22;40178;53.042;6.406;2024-01-25T14:39:49;7.20;99.90
54264;DHT22;40178;53.042;6.406;2024-01-25T14:42:15;7.20;99.90
54264;DHT22;40178;53.042;6.406;2024-01-25T14:44:43;7.10;99.90
54264;DHT22;40178;53.042;6.406;2024-01-25T14:47:08;7.10;99.90
54264;DHT22;40178;53.042;6.406;2024-01-25T14:49:34;7.00;99.90
54264;DHT22;40178;53.042;6.406;2024-01-25T14:52:00;7.00;99.90
54264;DHT22;40178;53.042;6.406;2024-01-25T14:54:26;7.00;99.90
54264;DHT22;40178;53.042;6.406;2024-01-25T14:56:52;7.00;99.90
54264;DHT22;40178;53.042;6.406;2024-01-25T14:59:17;7.00;99.90
54264;DHT22;40178;53.042;6.406;2024-01-25T15:01:46;7.00;99.90
54264;DHT22;40178;53.042;6.406;2024-01-25T15:04:12;7.00;99.90
54264;DHT22;40178;53.042;6.406;2024-01-25T15:06:38;7.00;99.90
54264;DHT22;40178;53.042;6.406;2024-01-25T15:09:03;6.90;99.90
54264;DHT22;40178;53.042;6.406;2024-01-25T15:11:29;6.90;99.90
54264;DHT22;40178;53.042;6.406;2024-01-25T15:13:55;6.80;99.90
54264;DHT22;40178;53.042;6.406;2024-01-25T15:16:21;6.80;99.90
54264;DHT22;40178;53.042;6.406;2024-01-25T15:18:46;6.80;99.90
54264;DHT22;40178;53.042;6.406;2024-01-25T15:21:12;6.80;99.90
54264;DHT22;40178;53.042;6.406;2024-01-25T15:23:37;6.80;99.90
54264;DHT22;40178;53.042;6.406;2024-01-25T15:26:03;6.80;99.90
54264;DHT22;40178;53.042;6.406;2024-01-25T15:28:30;6.80;99.90
54264;DHT22;40178;53.042;6.406;2024-01-25T15:30:56;6.80;99.90
54264;DHT22;40178;53.042;6.406;2024-01-25T15:33:23;6.80;99.90
54264;DHT22;40178;53.042;6.406;2024-01-25T15:35:48;6.80;99.90
54264;DHT22;40178;53.042;6.406;2024-01-25T15:38:14;6.80;99.90